createdAt,value
2023-01-04T00:01:46.570Z,6.25
2023-01-04T00:04:49.025Z,5.80
2023-01-04T00:07:51.229Z,5.57
2023-01-04T00:10:53.772Z,5.90
2023-01-04T00:13:59.195Z,6.53
2023-01-04T00:17:01.702Z,6.57
2023-01-04T00:20:04.041Z,6.72
2023-01-04T00:23:06.555Z,5.32
2023-01-04T00:26:11.644Z,5.75
2023-01-04T00:29:14.755Z,4.82
2023-01-04T00:32:16.964Z,5.50
2023-01-04T00:35:44.255Z,4.87
2023-01-04T00:38:42.574Z,4.00
2023-01-04T00:41:59.237Z,5.15
2023-01-04T00:45:02.195Z,4.45
2023-01-04T00:48:04.792Z,4.22
2023-01-04T00:51:07.030Z,3.87
2023-01-04T00:54:13.446Z,5.00
2023-01-04T00:57:15.737Z,4.00
2023-01-04T01:00:18.269Z,4.57
2023-01-04T01:03:20.618Z,4.78
2023-01-04T01:06:24.982Z,4.43
2023-01-04T01:09:27.237Z,3.78
2023-01-04T01:12:30.122Z,3.70
2023-01-04T01:15:34.717Z,4.28
2023-01-04T01:18:39.506Z,3.90
2023-01-04T01:21:41.963Z,3.85
2023-01-04T01:24:44.479Z,4.57
2023-01-04T01:27:46.688Z,4.10
2023-01-04T01:30:49.235Z,3.80
2023-01-04T01:33:53.351Z,5.05
2023-01-04T01:36:56.037Z,4.85
2023-01-04T01:39:58.271Z,4.53
2023-01-04T01:43:00.791Z,4.70
2023-01-04T01:46:03.253Z,4.72
2023-01-04T01:49:11.828Z,6.03
2023-01-04T01:52:25.109Z,5.33
2023-01-04T01:55:30.696Z,5.40
2023-01-04T01:58:39.446Z,4.93
2023-01-04T02:04:48.334Z,4.80
2023-01-04T02:07:51.993Z,4.70
2023-01-04T02:10:54.197Z,5.18
2023-01-04T02:14:17.752Z,5.10
2023-01-04T02:17:44.760Z,4.75
2023-01-04T02:21:02.440Z,4.93
2023-01-04T02:24:41.419Z,5.00
2023-01-04T02:27:56.590Z,3.87
2023-01-04T02:31:20.486Z,4.72
2023-01-04T02:34:38.858Z,4.32
2023-01-04T02:37:58.426Z,4.28
2023-01-04T02:41:00.857Z,5.15
2023-01-04T02:44:35.371Z,4.37
2023-01-04T02:48:17.515Z,3.67
2023-01-04T02:51:30.231Z,4.37
2023-01-04T02:54:33.343Z,5.03
2023-01-04T02:57:58.371Z,4.32
2023-01-04T03:01:30.120Z,4.20
2023-01-04T03:05:03.186Z,4.45
2023-01-04T03:08:24.141Z,4.90
2023-01-04T03:11:55.832Z,4.07
2023-01-04T03:15:22.001Z,3.78
2023-01-04T03:18:28.181Z,3.42
2023-01-04T03:21:33.092Z,3.67
2023-01-04T03:24:54.125Z,4.10
2023-01-04T03:28:16.513Z,3.75
2023-01-04T03:31:53.152Z,4.25
2023-01-04T03:35:15.098Z,3.60
2023-01-04T03:38:49.179Z,4.35
2023-01-04T03:42:36.205Z,3.08
2023-01-04T03:46:08.118Z,3.40
2023-01-04T03:49:23.507Z,3.15
2023-01-04T03:52:30.674Z,3.40
2023-01-04T03:55:36.068Z,3.72
2023-01-04T03:58:39.068Z,4.75
2023-01-04T04:01:43.434Z,4.60
2023-01-04T04:05:05.071Z,4.80
2023-01-04T04:08:25.974Z,5.53
2023-01-04T04:11:31.592Z,5.28
2023-01-04T04:14:34.098Z,5.00
2023-01-04T04:17:36.552Z,5.72
2023-01-04T04:20:38.841Z,5.60
2023-01-04T04:23:41.351Z,5.40
2023-01-04T04:26:43.921Z,6.28
2023-01-04T04:29:46.466Z,5.53
2023-01-04T04:32:48.686Z,5.68
2023-01-04T04:35:52.758Z,6.03
2023-01-04T04:38:55.055Z,6.35
2023-01-04T04:41:57.547Z,6.20
2023-01-04T04:45:00.180Z,5.68
2023-01-04T04:48:02.841Z,6.00
2023-01-04T04:51:05.383Z,5.03
2023-01-04T04:54:12.069Z,5.97
2023-01-04T04:57:14.362Z,4.82
2023-01-04T05:00:17.594Z,6.18
2023-01-04T05:03:20.122Z,6.57
2023-01-04T05:06:23.945Z,6.22
2023-01-04T05:09:26.327Z,6.18
2023-01-04T05:12:49.093Z,5.53
2023-01-04T05:15:56.288Z,6.05
2023-01-04T05:18:59.334Z,6.20
2023-01-04T05:22:11.609Z,6.05
2023-01-04T05:25:28.974Z,6.35
2023-01-04T05:28:32.003Z,6.50
2023-01-04T05:31:37.224Z,6.22
2023-01-04T05:34:55.148Z,6.03
2023-01-04T05:37:58.743Z,5.90
2023-01-04T05:41:02.141Z,6.10
2023-01-04T05:44:05.167Z,6.60
2023-01-04T05:47:14.492Z,7.25
2023-01-04T05:50:19.841Z,6.25
2023-01-04T05:53:22.341Z,6.85
2023-01-04T05:56:53.082Z,7.32
2023-01-04T06:00:05.762Z,6.70
2023-01-04T06:03:16.798Z,6.90
2023-01-04T06:06:30.576Z,6.45
2023-01-04T06:09:41.374Z,7.68
2023-01-04T06:12:53.040Z,7.82
2023-01-04T06:15:55.232Z,8.02
2023-01-04T06:18:57.858Z,7.35
2023-01-04T06:22:00.471Z,8.32
2023-01-04T06:25:03.766Z,7.72
2023-01-04T06:28:05.950Z,7.57
2023-01-04T06:31:10.835Z,6.93
2023-01-04T06:34:14.464Z,7.40
2023-01-04T06:37:16.979Z,7.80
2023-01-04T06:40:19.279Z,7.93
2023-01-04T06:43:21.802Z,8.35
2023-01-04T06:46:24.055Z,7.87
2023-01-04T06:49:26.664Z,7.45
2023-01-04T06:52:28.977Z,8.05
2023-01-04T06:55:34.245Z,8.52
2023-01-04T06:58:36.830Z,7.93
2023-01-04T07:01:39.845Z,7.53
2023-01-04T07:04:43.186Z,7.97
2023-01-04T07:07:45.803Z,8.15
2023-01-04T07:10:48.132Z,7.25
2023-01-04T07:13:52.759Z,8.00
2023-01-04T07:16:55.101Z,8.43
2023-01-04T07:19:57.675Z,8.68
2023-01-04T07:22:59.972Z,7.55
2023-01-04T07:26:03.251Z,7.50
2023-01-04T07:29:14.573Z,8.60
2023-01-04T07:32:18.100Z,8.00
2023-01-04T07:35:21.248Z,8.82
2023-01-04T07:38:24.314Z,8.75
2023-01-04T07:41:26.580Z,9.27
2023-01-04T07:44:29.362Z,9.43
2023-01-04T07:47:33.605Z,8.52
2023-01-04T07:50:43.270Z,8.98
2023-01-04T07:53:45.565Z,9.77
2023-01-04T07:56:48.679Z,9.35
2023-01-04T07:59:52.989Z,8.93
2023-01-04T08:02:57.232Z,9.65
2023-01-04T08:06:06.660Z,10.10
2023-01-04T08:12:14.483Z,9.90
2023-01-04T08:15:16.972Z,9.43
2023-01-04T08:18:20.660Z,9.65
2023-01-04T08:21:24.823Z,11.52
2023-01-04T08:24:30.434Z,11.43
2023-01-04T08:27:33.260Z,11.68
2023-01-04T08:30:35.934Z,10.70
2023-01-04T08:33:39.587Z,10.98
2023-01-04T08:36:51.160Z,10.35
2023-01-04T08:39:53.703Z,10.35
2023-01-04T08:42:56.382Z,9.93
2023-01-04T08:45:58.802Z,10.05
2023-01-04T08:49:01.303Z,10.73
2023-01-04T08:52:03.619Z,9.10
2023-01-04T08:55:12.201Z,9.88
2023-01-04T08:58:15.641Z,9.27
2023-01-04T09:01:18.297Z,10.10
2023-01-04T09:04:20.705Z,10.32
2023-01-04T09:07:23.363Z,10.15
2023-01-04T09:10:25.901Z,9.60
2023-01-04T09:13:28.741Z,9.52
2023-01-04T09:16:31.035Z,9.55
2023-01-04T09:19:33.788Z,9.63
2023-01-04T09:22:36.402Z,9.02
2023-01-04T09:25:40.304Z,8.55
2023-01-04T09:28:43.460Z,9.63
2023-01-04T09:31:49.125Z,9.15
2023-01-04T09:34:51.650Z,8.63
2023-01-04T09:37:55.770Z,8.48
2023-01-04T09:41:10.946Z,10.63
2023-01-04T09:44:34.531Z,9.23
2023-01-04T09:47:59.797Z,9.35
2023-01-04T09:51:10.365Z,8.98
2023-01-04T09:54:18.405Z,10.43
2023-01-04T09:57:31.204Z,9.45
2023-01-04T10:00:44.237Z,10.50
2023-01-04T10:04:31.158Z,9.93
2023-01-04T10:07:34.442Z,10.95
2023-01-04T10:11:18.837Z,9.80
2023-01-04T10:14:24.277Z,9.73
2023-01-04T10:18:34.119Z,9.95
2023-01-04T10:21:31.926Z,12.35
2023-01-04T10:24:35.709Z,9.50
2023-01-04T10:28:00.517Z,7.35
2023-01-04T10:31:38.480Z,7.50
2023-01-04T10:34:42.019Z,9.05
2023-01-04T10:37:47.169Z,9.40
2023-01-04T10:40:50.474Z,9.20
2023-01-04T10:44:28.641Z,8.05
2023-01-04T10:47:53.584Z,8.70
2023-01-04T10:51:07.065Z,8.50
2023-01-04T10:54:44.090Z,8.90
2023-01-04T10:57:58.730Z,8.93
2023-01-04T11:01:10.455Z,8.68
2023-01-04T11:04:19.441Z,8.25
2023-01-04T11:07:43.980Z,9.30
2023-01-04T11:10:55.693Z,8.30
2023-01-04T11:14:00.161Z,7.45
2023-01-04T11:17:05.703Z,7.85
2023-01-04T11:20:09.113Z,8.30
2023-01-04T11:23:15.093Z,7.35
2023-01-04T11:26:31.381Z,6.30
2023-01-04T11:29:58.252Z,4.43
2023-01-04T11:33:09.584Z,4.57
2023-01-04T11:36:33.562Z,4.12
2023-01-04T11:39:39.293Z,4.55
2023-01-04T11:42:43.794Z,4.53
2023-01-04T11:45:57.967Z,3.78
2023-01-04T11:49:00.707Z,4.60
2023-01-04T11:52:04.617Z,5.07
2023-01-04T11:55:27.329Z,4.85
2023-01-04T11:58:29.947Z,4.10
2023-01-04T12:01:38.193Z,4.15
2023-01-04T12:04:41.106Z,3.45
2023-01-04T12:07:43.495Z,2.35
2023-01-04T12:10:46.144Z,2.60
2023-01-04T12:13:48.464Z,2.70
2023-01-04T12:17:04.409Z,2.70
2023-01-04T12:20:19.737Z,2.40
2023-01-04T12:23:23.380Z,2.10
2023-01-04T12:26:26.064Z,2.08
2023-01-04T12:29:32.961Z,1.55
2023-01-04T12:32:35.193Z,1.65
2023-01-04T12:35:59.505Z,1.75
2023-01-04T12:39:13.780Z,2.15
2023-01-04T12:42:27.574Z,2.33
2023-01-04T12:45:29.809Z,2.50
2023-01-04T12:48:55.484Z,1.95
2023-01-04T12:52:32.411Z,1.75
2023-01-04T12:55:44.885Z,1.90
2023-01-04T12:59:25.845Z,1.60
2023-01-04T13:02:30.306Z,1.60
2023-01-04T13:09:00.006Z,1.60
2023-01-04T13:12:13.585Z,1.67
2023-01-04T13:15:40.972Z,1.50
2023-01-04T13:18:50.537Z,1.98
2023-01-04T13:21:54.321Z,1.23
2023-01-04T13:24:58.700Z,1.10
2023-01-04T13:28:03.538Z,1.17
2023-01-04T13:31:05.857Z,1.17
2023-01-04T13:34:18.146Z,3.42
2023-01-04T13:37:26.386Z,4.15
2023-01-04T13:40:34.365Z,4.62
2023-01-04T13:43:36.523Z,4.43
2023-01-04T13:46:43.098Z,6.60
2023-01-04T13:49:45.478Z,6.85
2023-01-04T13:52:59.922Z,8.18
2023-01-04T13:56:06.489Z,7.68
2023-01-04T13:59:09.685Z,7.93
2023-01-04T14:02:18.235Z,8.10
2023-01-04T14:05:21.009Z,8.10
2023-01-04T14:08:37.450Z,8.60
2023-01-04T14:12:05.651Z,8.85
2023-01-04T14:15:20.498Z,8.27
2023-01-04T14:18:26.841Z,10.05
2023-01-04T14:21:36.968Z,10.27
2023-01-04T14:25:08.369Z,9.77
2023-01-04T14:28:30.136Z,10.23
2023-01-04T14:31:36.031Z,11.45
2023-01-04T14:34:38.345Z,12.10
2023-01-04T14:37:41.993Z,12.70
2023-01-04T14:40:48.554Z,12.60
2023-01-04T14:44:01.433Z,11.57
2023-01-04T14:47:06.797Z,12.60
2023-01-04T14:50:28.677Z,12.73
2023-01-04T14:53:33.374Z,12.90
2023-01-04T14:56:36.416Z,12.20
2023-01-04T14:59:39.481Z,12.57
2023-01-04T15:02:42.754Z,11.90
2023-01-04T15:05:46.823Z,12.93
2023-01-04T15:08:51.807Z,13.30
2023-01-04T15:11:54.981Z,13.05
2023-01-04T15:14:57.921Z,12.07
2023-01-04T15:18:00.802Z,12.25
2023-01-04T15:21:05.349Z,13.60
2023-01-04T15:24:09.473Z,12.80
2023-01-04T15:27:21.008Z,13.07
2023-01-04T15:30:33.951Z,12.93
2023-01-04T15:38:44.567Z,13.32
2023-01-04T15:42:42.808Z,13.80
2023-01-04T15:46:11.850Z,16.12
2023-01-04T15:49:18.645Z,16.10
2023-01-04T15:55:43.198Z,17.40
2023-01-04T15:59:13.343Z,17.73
2023-01-04T16:02:49.234Z,17.15
2023-01-04T16:06:14.160Z,17.23
2023-01-04T16:09:46.012Z,19.67
2023-01-04T16:13:23.119Z,19.83
2023-01-04T16:16:35.300Z,19.12
2023-01-04T16:43:54.498Z,19.20
2023-01-04T16:47:54.317Z,20.40
